Archival Weather

Chicago O'Hare International

Chicago, Illinois (KORD)

Report from: Tuesday, December 6, 2022 12:36 AM CST
Current time: Saturday, February 4, 2023 9:29 PM CST

Current weather
Weather history
Weather forecast

Temperature4.4°C (39.9°F)
Wind chill1.1°C (33.9°F)
Dew point0.0°C (32.0°F)
Winds 8 kts (4.1 m/s, 9.2 mph) North-Northwest (340°)
Visibility10 mi. (16.1 km)
Clouds Ceiling: Broken clouds 2,100 ft. (640 m)
Overcast 3,500 ft. (1,067 m)
Altimeter29.96 in.Hg (1015 mB)
Relative humidity73 %
Density altitude-1,235 ft. (-376 m)
Remarks Automated weather observing station with precipitation discriminator
Flight conditions Marginal Visual Meteorological Conditions
Raw dataKORD 060636Z 34008KT 10SM BKN021 OVC035 04/00 A2996 RMK AO2 T00440000
An unhandled exception has occurred. See browser dev tools for details. Reload 🗙